Time;durP1;ratioP1;P1;durP2;ratioP2;P2;SDS_P1;SDS_P2;PMS_P1;PMS_P2;Temp;Humidity;BMP_temperature;BMP_pressure;BME280_temperature;BME280_humidity;BME280_pressure;Samples;Min_cycle;Max_cycle;Signal;HPM_P1;HPM_P2
2023/05/29 00:01:34;;;;;;;5.60;4.50;;;;;;;22.22;86.38;100371.21;108872;1277;21976;-62
2023/05/29 00:03:59;;;;;;;6.80;4.30;;;;;;;22.22;86.15;100369.26;108923;1268;21980;-62
2023/05/29 00:06:25;;;;;;;5.70;4.00;;;;;;;22.21;86.22;100366.27;108846;1267;22434;-64
2023/05/29 00:08:51;;;;;;;5.00;4.10;;;;;;;22.21;86.25;100370.38;108890;1277;21988;-60
2023/05/29 00:11:16;;;;;;;6.10;5.00;;;;;;;22.20;86.37;100370.27;108798;1277;22019;-63
2023/05/29 00:13:42;;;;;;;7.20;4.50;;;;;;;22.21;86.44;100370.58;110297;1268;21979;-61
2023/05/29 00:16:09;;;;;;;7.70;4.40;;;;;;;22.21;86.32;100363.58;108879;1277;21977;-61
2023/05/29 00:18:35;;;;;;;7.20;4.40;;;;;;;22.22;86.42;100360.30;108948;1277;22031;-61
2023/05/29 00:21:02;;;;;;;6.70;4.90;;;;;;;22.23;86.38;100357.56;108851;1275;21984;-64
2023/05/29 00:23:27;;;;;;;6.00;5.00;;;;;;;22.22;86.37;100352.32;108882;1271;21974;-63
2023/05/29 00:25:53;;;;;;;5.70;4.60;;;;;;;22.21;86.35;100351.45;108812;1277;21989;-64
2023/05/29 00:28:19;;;;;;;7.40;4.40;;;;;;;22.22;86.28;100353.02;108857;1277;21976;-61
2023/05/29 00:30:45;;;;;;;4.90;4.20;;;;;;;22.21;86.03;100352.34;108837;1272;21975;-63
2023/05/29 00:33:10;;;;;;;5.60;4.00;;;;;;;22.23;85.84;100354.38;108821;1268;21977;-61
2023/05/29 00:35:36;;;;;;;8.70;4.90;;;;;;;22.22;85.83;100353.73;108839;1271;21985;-64
2023/05/29 00:38:02;;;;;;;6.00;4.60;;;;;;;22.21;85.92;100354.88;108853;1277;21971;-63
2023/05/29 00:40:28;;;;;;;6.80;4.30;;;;;;;22.19;85.68;100359.41;108854;1277;21978;-62
2023/05/29 00:42:53;;;;;;;6.10;4.80;;;;;;;22.17;85.75;100359.73;108869;1277;22031;-62
2023/05/29 00:45:19;;;;;;;8.70;5.00;;;;;;;22.13;85.87;100361.20;108837;1268;22005;-65
2023/05/29 00:47:45;;;;;;;7.70;4.30;;;;;;;22.11;85.98;100361.00;108852;1277;21987;-64
2023/05/29 00:50:13;;;;;;;6.00;4.50;;;;;;;22.09;86.02;100360.59;108836;1275;22088;-63
2023/05/29 00:52:41;;;;;;;8.70;4.70;;;;;;;22.08;85.88;100360.25;109008;1274;21978;-61
2023/05/29 00:55:07;;;;;;;5.50;4.20;;;;;;;22.09;85.90;100357.48;109014;1268;21982;-63
2023/05/29 00:57:34;;;;;;;5.60;4.40;;;;;;;22.09;85.83;100356.45;108955;1271;23090;-62
2023/05/29 00:59:59;;;;;;;6.30;4.40;;;;;;;22.09;85.68;100357.70;108882;1277;21979;-62
2023/05/29 01:02:25;;;;;;;5.20;4.40;;;;;;;22.09;85.64;100355.05;108732;1277;22016;-61
2023/05/29 01:04:54;;;;;;;6.80;4.80;;;;;;;22.09;85.76;100354.88;108817;1274;22444;-62
2023/05/29 01:07:20;;;;;;;8.60;5.60;;;;;;;22.06;85.75;100353.09;108602;1277;21982;-63
2023/05/29 01:09:46;;;;;;;7.80;4.70;;;;;;;22.02;85.87;100352.77;108892;1277;21979;-62
2023/05/29 01:12:15;;;;;;;7.20;5.00;;;;;;;21.98;86.08;100351.23;108804;1277;22000;-63
2023/05/29 01:14:53;;;;;;;9.10;4.70;;;;;;;21.96;85.81;100348.86;108919;1267;22013;-62
2023/05/29 01:17:33;;;;;;;5.80;4.50;;;;;;;21.93;85.78;100347.77;108918;1268;21976;-61
2023/05/29 01:20:04;;;;;;;7.20;4.70;;;;;;;21.92;85.74;100345.88;108975;1277;21982;-61
2023/05/29 01:22:54;;;;;;;7.20;5.10;;;;;;;21.88;86.00;100348.27;108896;1271;22038;-61
2023/05/29 01:25:44;;;;;;;7.70;4.70;;;;;;;21.74;87.20;100355.33;108794;1277;21982;-62
2023/05/29 01:31:32;;;;;;;6.20;5.00;;;;;;;21.61;88.09;100351.96;108835;1277;21979;-64
2023/05/29 01:33:59;;;;;;;6.90;4.80;;;;;;;21.60;88.28;100350.81;108737;1274;21978;-64
2023/05/29 01:36:26;;;;;;;5.80;4.70;;;;;;;21.59;88.19;100349.94;108863;1273;21985;-63
2023/05/29 01:38:53;;;;;;;8.00;4.70;;;;;;;21.60;88.16;100350.80;108865;1271;22009;-61
2023/05/29 01:41:19;;;;;;;7.40;4.60;;;;;;;21.58;88.28;100353.23;108856;1277;21977;-62
2023/05/29 01:43:45;;;;;;;6.80;4.80;;;;;;;21.57;88.21;100356.30;108869;1277;21985;-61
2023/05/29 01:46:12;;;;;;;8.40;5.10;;;;;;;21.56;88.14;100355.14;108862;1277;21977;-65
2023/05/29 01:48:38;;;;;;;6.40;4.90;;;;;;;21.56;87.85;100356.89;108595;1268;380807;-63
2023/05/29 01:51:03;;;;;;;8.70;4.90;;;;;;;21.56;87.70;100358.19;108934;1277;21983;-61
2023/05/29 01:53:29;;;;;;;5.80;5.10;;;;;;;21.53;87.47;100356.88;108791;1273;23164;-64
2023/05/29 01:55:55;;;;;;;7.30;5.00;;;;;;;21.51;87.42;100357.74;108550;1277;21980;-64
2023/05/29 01:58:21;;;;;;;7.40;5.20;;;;;;;21.49;87.37;100362.30;108906;1277;21981;-63
2023/05/29 02:00:47;;;;;;;12.20;4.70;;;;;;;21.49;87.38;100362.46;108685;1275;22091;-63
2023/05/29 02:03:13;;;;;;;8.60;4.20;;;;;;;21.49;87.12;100363.20;108895;1277;21988;-62
2023/05/29 02:05:38;;;;;;;8.80;4.80;;;;;;;21.45;86.77;100360.91;108796;1277;21978;-61
2023/05/29 02:08:05;;;;;;;8.40;4.80;;;;;;;21.41;86.55;100360.63;108913;1277;21979;-63
2023/05/29 02:10:31;;;;;;;7.00;3.70;;;;;;;21.38;86.31;100363.30;108922;1274;21976;-62
2023/05/29 02:12:57;;;;;;;9.10;4.20;;;;;;;21.37;86.26;100366.92;108852;1276;21989;-62
2023/05/29 02:15:23;;;;;;;9.00;3.50;;;;;;;21.36;86.24;100371.79;108861;1277;21980;-63
2023/05/29 02:17:49;;;;;;;8.50;4.70;;;;;;;21.35;85.87;100373.31;108850;1277;21984;-61
2023/05/29 02:20:15;;;;;;;7.50;4.20;;;;;;;21.30;85.57;100374.98;108834;1277;21974;-64
2023/05/29 02:22:41;;;;;;;6.80;4.00;;;;;;;21.25;85.66;100376.13;108931;1275;22015;-62
2023/05/29 02:25:07;;;;;;;8.80;4.90;;;;;;;21.21;85.05;100377.27;108866;1271;21984;-64
2023/05/29 02:27:33;;;;;;;9.70;4.40;;;;;;;21.16;85.00;100379.18;108857;1277;21999;-62
2023/05/29 02:29:58;;;;;;;7.30;3.60;;;;;;;21.12;85.15;100379.39;108909;1277;21987;-61
2023/05/29 02:32:25;;;;;;;7.00;4.10;;;;;;;21.08;85.25;100382.80;108860;1272;21964;-62
2023/05/29 02:34:52;;;;;;;6.20;3.70;;;;;;;21.07;85.19;100382.19;108801;1271;23468;-62
2023/05/29 02:37:17;;;;;;;6.30;3.80;;;;;;;21.05;85.42;100379.59;108885;1277;21971;-62
2023/05/29 02:39:43;;;;;;;9.40;3.90;;;;;;;21.08;84.68;100380.86;108881;1275;21987;-62
2023/05/29 02:42:09;;;;;;;5.80;3.90;;;;;;;21.02;84.61;100381.89;108875;1270;21967;-64
2023/05/29 02:44:35;;;;;;;6.90;3.60;;;;;;;20.99;84.53;100382.13;108929;1275;21982;-61
2023/05/29 02:47:01;;;;;;;6.70;4.10;;;;;;;20.95;84.51;100382.68;108788;1275;21977;-62
2023/05/29 02:49:27;;;;;;;7.20;3.90;;;;;;;20.90;84.26;100384.92;108868;1277;21993;-61
2023/05/29 02:51:56;;;;;;;7.70;4.00;;;;;;;20.84;84.25;100386.47;108895;1274;21985;-61
2023/05/29 02:54:25;;;;;;;5.80;3.80;;;;;;;20.80;84.26;100391.52;108855;1271;21992;-62
2023/05/29 02:56:51;;;;;;;7.80;4.00;;;;;;;20.76;84.18;100392.77;108804;1268;22075;-62
2023/05/29 02:59:17;;;;;;;7.10;3.70;;;;;;;20.74;84.66;100396.80;108917;1272;22033;-62
2023/05/29 03:01:43;;;;;;;6.40;3.80;;;;;;;20.72;84.61;100396.55;108892;1271;21988;-63
2023/05/29 03:04:10;;;;;;;8.00;3.50;;;;;;;20.70;84.53;100393.12;108890;1277;21987;-61
2023/05/29 03:06:36;;;;;;;10.30;4.10;;;;;;;20.71;84.83;100398.41;109235;1277;21998;-62
2023/05/29 03:09:02;;;;;;;7.20;3.90;;;;;;;20.72;84.75;100400.84;108889;1274;21992;-61
2023/05/29 03:11:28;;;;;;;8.00;3.70;;;;;;;20.70;84.58;100403.95;108867;1277;21989;-61
2023/05/29 03:13:54;;;;;;;10.70;3.50;;;;;;;20.70;84.49;100407.17;110752;1277;21779;-62
2023/05/29 03:16:21;;;;;;;6.70;3.30;;;;;;;20.71;84.54;100411.02;110790;1268;21886;-62
2023/05/29 03:18:46;;;;;;;5.60;2.80;;;;;;;20.72;84.80;100414.21;110793;1277;21928;-62
2023/05/29 03:21:12;;;;;;;6.60;3.80;;;;;;;20.77;84.74;100413.58;109638;1275;22020;-61
2023/05/29 03:23:38;;;;;;;12.70;4.10;;;;;;;20.80;84.52;100410.92;108891;1272;21979;-61
2023/05/29 03:26:05;;;;;;;7.00;3.60;;;;;;;20.79;84.55;100412.02;108863;1277;21949;-63
2023/05/29 03:28:31;;;;;;;6.20;3.50;;;;;;;20.82;84.55;100417.09;108914;1274;21988;-61
2023/05/29 03:30:57;;;;;;;6.30;3.60;;;;;;;20.84;83.97;100418.03;108842;1268;22002;-63
2023/05/29 03:33:23;;;;;;;9.20;3.10;;;;;;;20.85;84.15;100423.31;108861;1277;21976;-61
2023/05/29 03:35:49;;;;;;;8.50;3.30;;;;;;;20.87;83.83;100423.92;108864;1275;21980;-63
2023/05/29 03:38:14;;;;;;;5.60;3.10;;;;;;;20.88;83.77;100424.42;108896;1264;21977;-61
2023/05/29 03:40:40;;;;;;;6.50;3.20;;;;;;;20.90;84.00;100428.27;108837;1274;21967;-61
2023/05/29 03:43:06;;;;;;;6.80;3.10;;;;;;;20.93;83.99;100433.08;108825;1277;21976;-61
2023/05/29 03:45:32;;;;;;;9.10;4.10;;;;;;;20.97;84.34;100434.11;108827;1275;21976;-63
2023/05/29 03:47:57;;;;;;;9.90;3.50;;;;;;;21.03;84.47;100437.88;108911;1277;21971;-62
2023/05/29 03:50:23;;;;;;;8.60;3.50;;;;;;;21.09;84.06;100429.87;108931;1277;21979;-62
2023/05/29 03:52:49;;;;;;;5.90;3.10;;;;;;;21.13;83.97;100432.34;108863;1277;21974;-62
2023/05/29 03:55:15;;;;;;;6.60;2.90;;;;;;;21.18;84.32;100434.00;108980;1277;22050;-61
2023/05/29 03:57:41;;;;;;;6.00;3.20;;;;;;;21.24;84.27;100435.48;109021;1277;25076;-63
2023/05/29 04:00:10;;;;;;;6.20;3.00;;;;;;;21.28;83.98;100437.89;108896;1277;23122;-61
2023/05/29 04:02:37;;;;;;;6.50;2.90;;;;;;;21.33;83.96;100441.91;108899;1265;21979;-63
2023/05/29 04:05:04;;;;;;;4.80;3.10;;;;;;;21.40;84.24;100441.00;108882;1277;22019;-62
2023/05/29 04:07:30;;;;;;;6.00;3.10;;;;;;;21.46;84.48;100443.70;108942;1275;23040;-62
2023/05/29 04:09:56;;;;;;;6.00;3.20;;;;;;;21.53;84.84;100448.14;108863;1268;21982;-62
2023/05/29 04:12:22;;;;;;;5.60;3.30;;;;;;;21.61;84.99;100447.67;108820;1277;21978;-64
2023/05/29 04:14:47;;;;;;;8.70;3.10;;;;;;;21.69;84.69;100449.19;108880;1277;21982;-64
2023/05/29 04:17:13;;;;;;;5.40;3.50;;;;;;;21.76;84.44;100446.84;108832;1277;21975;-64
2023/05/29 04:19:39;;;;;;;6.60;3.00;;;;;;;21.81;83.97;100444.42;108814;1277;21979;-62
2023/05/29 04:22:04;;;;;;;7.80;3.00;;;;;;;21.87;84.37;100441.02;108898;1275;21996;-66
2023/05/29 04:24:31;;;;;;;6.80;3.00;;;;;;;21.93;83.94;100438.14;108835;1275;21978;-64
2023/05/29 04:27:00;;;;;;;6.50;3.00;;;;;;;21.98;83.43;100439.63;108897;1271;21974;-62
2023/05/29 04:29:26;;;;;;;7.30;3.50;;;;;;;22.04;83.17;100441.84;108924;1264;21982;-64
2023/05/29 04:31:52;;;;;;;5.70;3.30;;;;;;;22.06;82.86;100440.65;108899;1275;21988;-64
2023/05/29 04:34:17;;;;;;;6.20;3.40;;;;;;;22.09;83.46;100441.52;108828;1277;22516;-64
2023/05/29 04:36:43;;;;;;;6.40;3.10;;;;;;;22.14;83.17;100446.05;108845;1270;21981;-62
2023/05/29 04:39:09;;;;;;;8.10;3.40;;;;;;;22.18;82.72;100445.30;108914;1273;21986;-61
2023/05/29 04:41:37;;;;;;;5.40;3.20;;;;;;;22.20;82.40;100447.48;108863;1273;21981;-62
2023/05/29 04:44:04;;;;;;;9.40;3.40;;;;;;;22.24;83.30;100451.17;108878;1277;22014;-62
2023/05/29 04:46:30;;;;;;;5.90;3.70;;;;;;;22.30;82.79;100454.93;108844;1271;21976;-61
2023/05/29 04:48:56;;;;;;;6.80;3.30;;;;;;;22.35;83.00;100457.11;108844;1277;21976;-61
2023/05/29 04:51:22;;;;;;;5.10;3.00;;;;;;;22.42;83.15;100459.95;108824;1273;22026;-62
2023/05/29 04:53:48;;;;;;;4.70;2.70;;;;;;;22.49;83.02;100460.80;109838;1268;21984;-62
2023/05/29 04:56:14;;;;;;;5.10;3.10;;;;;;;22.54;82.67;100455.44;110198;1277;23040;-63
2023/05/29 04:58:41;;;;;;;7.00;3.50;;;;;;;22.60;82.60;100453.13;108857;1277;21973;-61
2023/05/29 05:01:08;;;;;;;4.40;3.20;;;;;;;22.66;82.32;100446.70;108773;1274;21977;-61
2023/05/29 05:03:34;;;;;;;7.50;3.10;;;;;;;22.73;82.84;100444.09;108846;1275;21973;-61
2023/05/29 05:06:02;;;;;;;10.20;4.10;;;;;;;22.79;82.41;100446.77;108790;1277;21993;-63
2023/05/29 05:08:32;;;;;;;8.20;3.10;;;;;;;22.84;82.50;100451.80;108893;1274;23695;-61
2023/05/29 05:10:58;;;;;;;8.00;3.60;;;;;;;22.93;82.72;100451.48;108863;1275;21988;-63
2023/05/29 05:13:24;;;;;;;6.30;3.10;;;;;;;23.02;82.36;100456.10;108850;1270;21996;-61
2023/05/29 05:15:49;;;;;;;6.80;3.40;;;;;;;23.06;81.38;100455.68;108853;1277;21981;-63
2023/05/29 05:18:15;;;;;;;7.00;3.40;;;;;;;23.07;81.12;100453.28;108882;1275;21981;-63
2023/05/29 05:20:41;;;;;;;8.20;3.50;;;;;;;23.09;81.46;100453.35;108859;1277;21976;-63
2023/05/29 05:23:07;;;;;;;7.00;3.40;;;;;;;23.13;82.01;100453.98;108822;1275;21981;-62
2023/05/29 05:25:34;;;;;;;6.30;3.00;;;;;;;23.20;82.38;100452.45;108538;1278;22003;-64
2023/05/29 05:28:02;;;;;;;4.90;3.10;;;;;;;23.26;81.93;100449.95;108691;1273;21968;-61
2023/05/29 05:30:28;;;;;;;6.80;3.20;;;;;;;23.33;81.65;100446.08;109050;1267;22019;-63
2023/05/29 05:32:55;;;;;;;7.50;3.60;;;;;;;23.36;80.65;100445.41;108656;1270;21972;-61
2023/05/29 05:35:20;;;;;;;6.50;3.00;;;;;;;23.33;80.03;100442.54;108774;1267;21984;-63
2023/05/29 05:37:46;;;;;;;5.90;3.70;;;;;;;23.29;80.07;100443.64;108670;1267;22134;-63
2023/05/29 05:40:12;;;;;;;8.10;3.40;;;;;;;23.28;79.75;100443.55;108729;1278;22731;-62
2023/05/29 05:42:38;;;;;;;9.90;3.80;;;;;;;23.28;79.60;100441.79;108775;1267;21978;-63
2023/05/29 05:45:06;;;;;;;6.40;3.80;;;;;;;23.29;79.56;100439.70;108727;1278;21985;-62
2023/05/29 05:47:32;;;;;;;5.50;3.50;;;;;;;23.34;79.95;100438.31;108679;1277;21974;-62
2023/05/29 05:49:58;;;;;;;8.30;3.60;;;;;;;23.42;80.57;100445.67;108685;1267;22017;-62
2023/05/29 05:52:24;;;;;;;7.40;4.20;;;;;;;23.50;80.40;100448.41;108745;1274;21979;-62
2023/05/29 05:54:50;;;;;;;15.40;6.10;;;;;;;23.60;81.21;100449.20;108767;1278;22093;-63
2023/05/29 05:57:16;;;;;;;7.40;4.10;;;;;;;23.74;81.63;100450.92;108710;1267;21995;-62
2023/05/29 05:59:41;;;;;;;11.90;5.50;;;;;;;23.86;80.61;100452.81;108719;1278;21941;-65
2023/05/29 06:02:07;;;;;;;6.60;3.30;;;;;;;23.98;81.44;100452.96;108711;1277;21979;-63
2023/05/29 06:04:33;;;;;;;8.20;3.90;;;;;;;24.14;81.77;100450.79;108759;1277;21979;-63
2023/05/29 06:06:59;;;;;;;11.20;4.30;;;;;;;24.34;82.35;100450.02;108752;1274;21977;-63
2023/05/29 06:09:25;;;;;;;7.10;4.30;;;;;;;24.54;82.06;100445.77;108739;1278;21979;-62
2023/05/29 06:11:51;;;;;;;11.50;4.90;;;;;;;24.71;81.50;100444.22;108765;1267;22072;-63
2023/05/29 06:14:17;;;;;;;8.80;4.20;;;;;;;24.89;81.61;100444.02;108803;1278;21985;-62
2023/05/29 06:16:43;;;;;;;7.70;3.80;;;;;;;25.12;81.67;100438.30;108783;1277;21946;-62
2023/05/29 06:19:08;;;;;;;5.30;3.40;;;;;;;25.37;81.55;100432.71;108809;1277;23296;-62
2023/05/29 06:21:34;;;;;;;6.80;3.40;;;;;;;25.66;82.25;100428.39;108856;1271;22015;-62
2023/05/29 06:24:00;;;;;;;8.90;4.20;;;;;;;25.98;81.37;100424.95;108855;1274;22018;-63
2023/05/29 06:26:26;;;;;;;5.70;3.50;;;;;;;26.28;82.09;100419.63;108829;1274;21976;-64
2023/05/29 06:28:52;;;;;;;5.00;3.50;;;;;;;26.62;81.07;100413.55;108894;1277;21981;-62
2023/05/29 06:31:18;;;;;;;7.00;3.80;;;;;;;26.92;80.65;100411.59;108865;1271;21979;-62
2023/05/29 06:33:45;;;;;;;7.40;3.50;;;;;;;27.16;80.60;100405.66;108878;1277;21979;-62
2023/05/29 06:36:10;;;;;;;7.00;3.70;;;;;;;27.37;79.19;100406.33;108898;1264;21981;-63
2023/05/29 06:38:36;;;;;;;6.60;3.90;;;;;;;27.48;77.77;100403.40;108893;1277;21974;-63
2023/05/29 06:41:02;;;;;;;7.80;4.40;;;;;;;27.58;77.27;100399.21;108823;1277;21979;-64
2023/05/29 06:43:28;;;;;;;8.80;5.40;;;;;;;27.70;76.06;100396.58;108854;1277;21970;-62
2023/05/29 06:45:54;;;;;;;5.90;4.20;;;;;;;27.77;75.92;100399.37;108850;1267;21963;-63
2023/05/29 06:48:21;;;;;;;6.40;4.60;;;;;;;27.88;76.00;100401.38;108833;1274;22014;-63
2023/05/29 06:50:47;;;;;;;13.10;5.50;;;;;;;28.02;75.46;100399.09;108811;1275;21968;-63
2023/05/29 06:53:13;;;;;;;6.90;4.60;;;;;;;28.12;74.53;100400.98;108884;1270;23708;-62
2023/05/29 06:55:40;;;;;;;12.00;7.90;;;;;;;28.30;74.35;100399.83;108800;1267;21979;-65
2023/05/29 06:58:06;;;;;;;8.10;4.80;;;;;;;28.37;72.36;100400.13;108947;1267;22009;-61
2023/05/29 07:00:32;;;;;;;12.10;5.80;;;;;;;28.42;73.10;100399.33;108959;1267;21986;-64
2023/05/29 07:02:58;;;;;;;9.60;6.30;;;;;;;28.52;73.21;100398.95;108991;1269;21989;-63
2023/05/29 07:05:23;;;;;;;6.50;4.80;;;;;;;28.68;73.43;100396.17;108753;1271;22019;-62
2023/05/29 07:07:49;;;;;;;7.60;5.90;;;;;;;28.78;72.93;100399.19;108735;1277;22016;-65
2023/05/29 07:10:15;;;;;;;12.40;8.60;;;;;;;28.91;73.16;100399.69;108756;1264;21977;-64
2023/05/29 07:12:40;;;;;;;7.70;5.00;;;;;;;29.07;72.27;100399.03;108738;1274;21986;-64
2023/05/29 07:15:07;;;;;;;8.60;5.80;;;;;;;29.18;72.09;100399.08;108785;1276;21987;-64
2023/05/29 07:17:32;;;;;;;13.10;7.10;;;;;;;29.35;71.66;100400.34;108804;1267;21982;-63
2023/05/29 07:19:58;;;;;;;10.60;6.30;;;;;;;29.51;71.85;100402.83;108889;1277;21976;-63
2023/05/29 07:22:24;;;;;;;10.40;8.60;;;;;;;29.67;70.95;100403.54;108894;1274;22049;-64
2023/05/29 07:24:50;;;;;;;13.40;8.40;;;;;;;29.81;70.55;100399.13;108855;1270;21980;-63
2023/05/29 07:27:16;;;;;;;17.30;10.50;;;;;;;29.90;69.67;100393.38;108881;1277;22000;-64
2023/05/29 07:29:41;;;;;;;9.90;8.50;;;;;;;29.95;69.08;100388.97;108927;1274;21977;-62
2023/05/29 07:32:07;;;;;;;10.60;6.90;;;;;;;30.08;69.46;100389.41;108921;1276;21988;-64
2023/05/29 07:34:33;;;;;;;8.10;7.00;;;;;;;30.32;69.46;100394.80;108943;1276;21978;-64
2023/05/29 07:37:04;;;;;;;16.80;10.60;;;;;;;30.45;67.83;100396.41;108914;1277;21993;-65
2023/05/29 07:39:31;;;;;;;12.20;8.90;;;;;;;30.54;68.04;100400.43;108978;1271;22011;-64
2023/05/29 07:41:57;;;;;;;14.10;10.10;;;;;;;30.68;67.71;100397.14;108920;1267;21988;-64
2023/05/29 07:44:22;;;;;;;16.00;10.60;;;;;;;30.83;67.79;100396.10;108785;1273;21985;-66
2023/05/29 07:46:48;;;;;;;17.70;12.50;;;;;;;31.00;68.67;100396.71;108833;1277;21988;-67
2023/05/29 07:49:15;;;;;;;17.70;12.80;;;;;;;31.19;66.24;100389.98;108869;1268;22006;-66
2023/05/29 07:51:41;;;;;;;20.50;15.40;;;;;;;31.33;65.57;100388.23;108934;1276;21979;-66
2023/05/29 07:54:06;;;;;;;12.30;10.10;;;;;;;31.38;66.49;100386.54;108932;1270;21979;-65
2023/05/29 07:56:33;;;;;;;30.20;16.80;;;;;;;31.49;65.00;100383.93;108806;1277;21989;-63
2023/05/29 07:59:00;;;;;;;23.70;14.50;;;;;;;31.55;64.41;100384.07;108901;1277;21977;-62
2023/05/29 08:01:27;;;;;;;24.30;15.20;;;;;;;31.63;64.12;100383.11;108838;1277;21985;-67
2023/05/29 08:03:52;;;;;;;30.10;19.60;;;;;;;31.77;63.69;100383.00;108833;1274;23599;-65
2023/05/29 08:06:18;;;;;;;31.70;20.50;;;;;;;31.86;64.07;100384.61;108849;1273;21983;-65
2023/05/29 08:08:44;;;;;;;35.20;21.60;;;;;;;31.98;64.72;100381.75;108833;1271;21990;-66
2023/05/29 08:11:10;;;;;;;26.20;18.70;;;;;;;32.19;64.80;100385.39;108869;1270;21988;-65
2023/05/29 08:13:37;;;;;;;27.00;21.30;;;;;;;32.38;63.89;100384.52;108876;1271;21979;-64
2023/05/29 08:16:03;;;;;;;37.60;26.00;;;;;;;32.45;62.16;100381.77;108847;1277;21985;-65
2023/05/29 08:18:30;;;;;;;42.30;28.00;;;;;;;32.54;62.85;100384.84;108936;1264;21978;-64
2023/05/29 08:20:56;;;;;;;49.70;26.60;;;;;;;32.63;61.88;100384.84;110734;1277;21959;-66
2023/05/29 08:23:22;;;;;;;47.00;29.20;;;;;;;32.72;62.17;100381.80;110789;1275;21917;-65
2023/05/29 08:25:47;;;;;;;40.00;24.50;;;;;;;32.87;62.72;100380.42;110787;1271;21882;-67
2023/05/29 08:28:14;;;;;;;48.40;28.70;;;;;;;33.01;63.81;100381.33;108989;1274;22024;-63
2023/05/29 08:30:40;;;;;;;41.60;27.80;;;;;;;33.15;62.67;100378.95;109217;1267;21986;-65
2023/05/29 08:33:06;;;;;;;66.00;37.70;;;;;;;33.14;60.88;100385.08;109210;1277;21982;-63
2023/05/29 08:35:32;;;;;;;88.90;40.20;;;;;;;33.25;61.28;100385.27;109045;1277;24400;-63
2023/05/29 08:37:59;;;;;;;96.20;43.90;;;;;;;33.34;60.07;100389.23;108956;1271;21982;-63
2023/05/29 08:40:24;;;;;;;61.60;32.60;;;;;;;33.30;59.89;100384.26;108816;1277;22021;-64
2023/05/29 08:43:06;;;;;;;80.30;41.20;;;;;;;33.39;60.10;100382.00;108914;1274;21979;-64
2023/05/29 08:45:33;;;;;;;75.60;34.20;;;;;;;33.58;58.73;100379.98;108845;1275;21990;-64
2023/05/29 08:47:59;;;;;;;72.50;41.20;;;;;;;33.77;59.16;100384.75;108897;1270;21985;-64
2023/05/29 08:50:24;;;;;;;72.20;36.20;;;;;;;33.92;58.46;100381.66;108476;1267;21979;-64
2023/05/29 08:52:50;;;;;;;73.70;35.70;;;;;;;34.09;60.57;100377.42;108736;1273;21980;-64
2023/05/29 08:55:16;;;;;;;79.50;45.80;;;;;;;34.38;61.12;100377.25;108512;1273;21986;-64
2023/05/29 08:57:43;;;;;;;92.70;43.80;;;;;;;34.66;60.28;100374.27;108812;1275;22017;-66
2023/05/29 09:00:15;;;;;;;80.30;39.20;;;;;;;34.79;59.60;100371.17;108852;1273;21997;-64
2023/05/29 09:02:41;;;;;;;64.20;37.00;;;;;;;34.87;59.52;100366.58;108849;1267;21967;-65
2023/05/29 09:05:08;;;;;;;77.60;37.90;;;;;;;34.92;56.89;100363.34;108870;1275;23596;-64
2023/05/29 09:07:34;;;;;;;108.20;56.40;;;;;;;35.01;56.65;100362.84;108885;1270;23697;-64
2023/05/29 09:10:00;;;;;;;80.40;43.60;;;;;;;35.07;57.33;100361.21;108853;1274;21979;-64
2023/05/29 09:12:26;;;;;;;73.60;39.90;;;;;;;35.23;56.81;100355.19;108876;1276;21976;-65
2023/05/29 09:14:52;;;;;;;114.60;60.50;;;;;;;35.42;56.62;100356.04;110733;1268;21923;-65
2023/05/29 09:17:17;;;;;;;109.20;53.60;;;;;;;35.51;56.04;100357.91;110788;1277;21786;-65
2023/05/29 09:19:44;;;;;;;79.60;47.50;;;;;;;35.58;55.67;100357.40;109224;1270;21981;-65
2023/05/29 09:22:14;;;;;;;137.30;58.90;;;;;;;35.71;56.27;100354.45;108968;1269;21985;-63
2023/05/29 09:24:41;;;;;;;121.30;59.10;;;;;;;35.84;56.16;100353.57;108851;1277;21973;-64
2023/05/29 09:27:08;;;;;;;166.30;73.90;;;;;;;36.02;55.48;100350.23;108819;1271;21941;-65
2023/05/29 09:36:43;;;;;;;119.20;66.50;;;;;;;36.57;54.10;100342.20;108811;1274;21976;-65
2023/05/29 09:39:09;;;;;;;151.60;69.60;;;;;;;36.72;54.05;100340.73;108751;1275;22034;-68
2023/05/29 09:41:43;;;;;;;178.20;79.30;;;;;;;36.98;52.87;100342.12;108846;1267;22318;-68
2023/05/29 09:44:13;;;;;;;148.70;71.60;;;;;;;37.10;52.93;100338.48;108890;1277;21989;-63
2023/05/29 09:46:39;;;;;;;;;;;;;;;37.29;53.24;100334.83;108940;1275;22015;-64
2023/05/29 09:49:12;;;;;;;171.80;81.50;;;;;;;37.55;53.12;100336.27;108853;1270;21977;-67
2023/05/29 09:51:39;;;;;;;194.20;88.80;;;;;;;37.65;51.96;100337.13;108755;1274;22140;-64
2023/05/29 09:54:17;;;;;;;188.70;85.60;;;;;;;37.65;51.61;100337.58;108938;1277;21984;-67
2023/05/29 09:56:43;;;;;;;197.30;92.60;;;;;;;37.58;50.73;100333.98;108903;1271;21969;-67
2023/05/29 09:59:13;;;;;;;188.80;86.70;;;;;;;37.56;51.26;100336.08;108853;1268;21990;-64
2023/05/29 10:01:43;;;;;;;182.30;88.40;;;;;;;37.57;49.50;100335.48;108829;1270;21977;-65
2023/05/29 10:04:10;;;;;;;252.30;111.00;;;;;;;37.55;50.34;100333.63;108898;1270;21979;-65
2023/05/29 10:06:36;;;;;;;249.90;114.30;;;;;;;37.60;50.10;100330.11;108925;1267;21981;-65
2023/05/29 10:09:03;;;;;;;235.20;107.40;;;;;;;37.70;49.77;100322.20;108916;1264;21985;-65
2023/05/29 10:11:29;;;;;;;240.70;118.00;;;;;;;37.85;48.91;100323.16;108815;1277;22112;-67
2023/05/29 10:13:54;;;;;;;291.90;123.30;;;;;;;38.02;48.82;100326.69;108703;1275;23621;-64
2023/05/29 10:16:21;;;;;;;280.00;131.60;;;;;;;38.05;47.85;100324.89;108742;1267;21981;-63
2023/05/29 10:18:56;;;;;;;267.80;127.70;;;;;;;38.02;48.14;100326.89;108804;1271;22106;-62
2023/05/29 10:21:26;;;;;;;222.20;109.60;;;;;;;37.97;48.15;100322.52;108832;1271;21982;-64
2023/05/29 10:23:52;;;;;;;264.40;119.90;;;;;;;37.86;46.63;100319.08;108893;1270;22004;-65
2023/05/29 10:26:22;;;;;;;239.50;112.90;;;;;;;37.62;47.08;100320.79;108744;1267;21982;-62
2023/05/29 10:28:55;;;;;;;;;;;;;;;37.40;47.12;100317.30;108961;1270;21999;-66
2023/05/29 10:31:30;;;;;;;247.10;115.80;;;;;;;37.19;46.63;100316.51;108798;1270;21987;-64
2023/05/29 10:34:08;;;;;;;270.80;122.10;;;;;;;36.99;46.68;100321.50;108855;1271;21971;-65
2023/05/29 10:36:37;;;;;;;227.40;100.50;;;;;;;36.85;47.05;100320.94;108818;1274;21988;-62
2023/05/29 10:39:02;;;;;;;215.80;108.80;;;;;;;36.68;46.89;100320.95;108889;1267;23072;-64
2023/05/29 10:41:29;;;;;;;192.60;93.80;;;;;;;36.48;46.89;100321.92;108838;1267;21984;-64
2023/05/29 10:43:55;;;;;;;212.90;87.60;;;;;;;36.27;46.86;100321.06;108896;1271;22446;-63
2023/05/29 10:46:21;;;;;;;173.70;81.90;;;;;;;35.98;46.91;100321.65;108889;1264;21981;-66
2023/05/29 10:48:50;;;;;;;200.50;88.00;;;;;;;35.82;47.75;100318.48;108911;1266;22016;-63
2023/05/29 10:51:28;;;;;;;160.00;76.70;;;;;;;35.73;47.78;100319.88;108828;1272;21971;-65
2023/05/29 10:53:54;;;;;;;161.10;69.30;;;;;;;35.61;47.21;100326.09;108833;1274;21977;-63
2023/05/29 10:56:22;;;;;;;143.70;69.50;;;;;;;35.47;47.44;100326.66;108817;1274;21977;-64
2023/05/29 10:58:55;;;;;;;155.20;73.30;;;;;;;35.31;47.52;100321.17;108898;1270;22936;-65
2023/05/29 11:01:23;;;;;;;137.40;69.90;;;;;;;35.14;47.34;100321.40;108855;1275;21988;-67
2023/05/29 11:03:48;;;;;;;102.60;56.30;;;;;;;34.97;47.31;100319.14;108877;1270;21981;-65
2023/05/29 11:06:19;;;;;;;118.60;60.70;;;;;;;34.82;47.64;100322.56;108736;1268;21986;-65
2023/05/29 11:08:46;;;;;;;111.50;56.40;;;;;;;34.69;47.76;100324.18;108880;1274;21984;-63
2023/05/29 11:11:15;;;;;;;101.90;50.80;;;;;;;34.58;48.09;100321.98;108906;1267;21987;-65
2023/05/29 11:13:51;;;;;;;121.70;50.20;;;;;;;34.47;47.56;100326.00;108980;1268;23080;-62
2023/05/29 11:16:19;;;;;;;58.30;37.00;;;;;;;34.44;48.39;100321.65;108775;1271;21982;-65
2023/05/29 11:18:46;;;;;;;107.90;51.30;;;;;;;34.53;48.60;100320.39;108899;1277;21990;-64